Time;durP1;ratioP1;P1;durP2;ratioP2;P2;SDS_P1;SDS_P2;PMS_P1;PMS_P2;Temp;Humidity;BMP_temperature;BMP_pressure;BME280_temperature;BME280_humidity;BME280_pressure;Samples;Min_cycle;Max_cycle;Signal;HPM_P1;HPM_P2
2023/05/14 00:02:17;;;;;;;3.47;3.17;;;23.00;58.10;;;;;;5065766;28;20240;-43
2023/05/14 00:04:45;;;;;;;4.23;3.57;;;23.00;58.20;;;;;;5046531;28;20241;-44
2023/05/14 00:07:14;;;;;;;3.73;3.33;;;23.00;58.20;;;;;;5060628;28;20759;-43
2023/05/14 00:09:45;;;;;;;3.83;3.27;;;23.00;58.20;;;;;;5053349;28;20201;-43
2023/05/14 00:12:13;;;;;;;4.83;3.60;;;23.00;58.20;;;;;;5055831;28;20324;-43
2023/05/14 00:14:45;;;;;;;4.00;3.60;;;23.00;58.20;;;;;;5061369;28;20201;-43
2023/05/14 00:17:15;;;;;;;3.87;3.47;;;22.90;58.20;;;;;;5055942;28;20220;-43
2023/05/14 00:19:45;;;;;;;3.97;3.57;;;22.90;58.20;;;;;;5067977;28;20197;-44
2023/05/14 00:22:17;;;;;;;3.80;3.50;;;22.90;58.20;;;;;;5066807;28;20605;-43
2023/05/14 00:24:47;;;;;;;3.67;3.37;;;22.90;58.20;;;;;;5069230;28;20659;-43
2023/05/14 00:27:18;;;;;;;4.00;3.70;;;22.90;58.30;;;;;;5059430;28;20256;-43
2023/05/14 00:29:46;;;;;;;5.37;3.53;;;22.80;58.20;;;;;;5061896;28;20214;-43
2023/05/14 00:32:16;;;;;;;4.20;3.67;;;22.90;58.30;;;;;;5070827;28;20716;-43
2023/05/14 00:34:46;;;;;;;3.50;3.20;;;22.80;58.30;;;;;;5071775;28;20221;-43
2023/05/14 00:37:17;;;;;;;4.53;3.83;;;22.80;58.30;;;;;;5071725;28;20205;-43
2023/05/14 00:39:45;;;;;;;3.60;3.30;;;22.80;58.40;;;;;;5065183;28;20645;-43
2023/05/14 00:42:13;;;;;;;3.67;3.17;;;22.80;58.30;;;;;;5056895;28;20213;-43
2023/05/14 00:44:47;;;;;;;4.63;3.30;;;22.80;58.40;;;;;;5071133;28;20218;-43
2023/05/14 00:47:19;;;;;;;4.67;3.40;;;22.80;58.40;;;;;;5071194;28;20244;-44
2023/05/14 00:49:52;;;;;;;3.63;3.13;;;22.80;58.40;;;;;;5067184;28;20189;-44
2023/05/14 00:52:23;;;;;;;5.33;3.77;;;22.80;58.50;;;;;;5068414;28;20220;-44
2023/05/14 00:55:15;;;;;;;3.53;3.10;;;22.80;58.50;;;;;;5069635;28;20216;-44
2023/05/14 00:57:46;;;;;;;3.30;3.00;;;22.80;58.30;;;;;;5070329;28;20205;-44
2023/05/14 01:00:18;;;;;;;3.43;3.13;;;22.80;58.50;;;;;;5052876;28;20198;-44
2023/05/14 01:02:45;;;;;;;3.60;3.30;;;22.70;58.30;;;;;;5059761;28;20202;-43
2023/05/14 01:05:17;;;;;;;3.70;3.40;;;22.70;58.50;;;;;;5077898;28;20225;-43
2023/05/14 01:08:00;;;;;;;3.83;3.53;;;22.70;58.60;;;;;;5071443;28;20228;-44
2023/05/14 01:10:50;;;;;;;3.20;2.90;;;22.70;58.50;;;;;;5066512;28;20202;-43
2023/05/14 01:13:45;;;;;;;3.93;3.50;;;22.70;58.50;;;;;;5053675;28;20193;-43
2023/05/14 01:16:22;;;;;;;3.83;3.47;;;22.70;58.50;;;;;;5064014;28;20245;-43
2023/05/14 01:19:07;;;;;;;4.70;3.60;;;22.70;58.40;;;;;;5067821;28;20190;-43
2023/05/14 01:21:42;;;;;;;4.00;3.57;;;22.70;58.50;;;;;;5069438;28;20201;-43
2023/05/14 01:24:11;;;;;;;3.97;3.40;;;22.60;58.50;;;;;;5068508;28;20267;-43
2023/05/14 01:27:22;;;;;;;4.10;3.70;;;22.70;58.50;;;;;;5059094;28;20261;-43
2023/05/14 01:30:16;;;;;;;3.63;3.37;;;22.60;58.50;;;;;;5036851;28;20217;-43
2023/05/14 01:32:49;;;;;;;5.00;3.70;;;22.60;58.60;;;;;;5052248;28;20228;-43
2023/05/14 01:35:24;;;;;;;4.40;4.00;;;22.60;58.50;;;;;;5053717;28;20643;-43
2023/05/14 01:38:08;;;;;;;4.50;3.53;;;22.60;58.60;;;;;;5067172;28;20835;-43
2023/05/14 01:40:38;;;;;;;4.33;3.40;;;22.60;58.60;;;;;;5063114;28;20309;-44
2023/05/14 01:43:14;;;;;;;4.27;3.87;;;22.60;58.50;;;;;;5069193;28;20189;-45
2023/05/14 01:45:46;;;;;;;3.83;3.53;;;22.50;58.60;;;;;;5038045;28;20304;-44
2023/05/14 01:48:16;;;;;;;4.93;3.67;;;22.60;58.60;;;;;;5068796;28;20193;-43
2023/05/14 01:50:45;;;;;;;4.23;3.53;;;22.50;58.60;;;;;;5071072;28;20198;-44
2023/05/14 01:53:16;;;;;;;4.03;3.63;;;22.60;58.70;;;;;;5066777;28;20221;-43
2023/05/14 01:55:45;;;;;;;3.57;3.30;;;22.60;58.60;;;;;;5070762;28;20228;-43
2023/05/14 01:58:17;;;;;;;3.80;3.50;;;22.50;58.70;;;;;;5068491;28;20250;-44
2023/05/14 02:00:49;;;;;;;4.97;3.53;;;22.50;58.70;;;;;;5067134;28;20197;-44
2023/05/14 02:03:17;;;;;;;3.80;3.50;;;22.50;58.70;;;;;;5057207;28;20195;-43
2023/05/14 02:05:48;;;;;;;3.87;3.47;;;22.50;58.70;;;;;;5053336;28;20241;-43
2023/05/14 02:08:19;;;;;;;4.67;4.27;;;22.50;58.60;;;;;;5068460;28;20661;-43
2023/05/14 02:10:49;;;;;;;4.10;3.77;;;22.50;58.70;;;;;;5058790;28;20550;-43
2023/05/14 02:13:20;;;;;;;3.90;3.60;;;22.50;58.80;;;;;;5067977;28;20206;-43
2023/05/14 02:15:50;;;;;;;6.03;3.80;;;22.40;58.70;;;;;;5050045;28;20623;-42
2023/05/14 02:18:21;;;;;;;4.53;3.90;;;22.40;58.70;;;;;;5069305;28;20204;-44
2023/05/14 02:20:51;;;;;;;3.53;3.23;;;22.50;58.70;;;;;;5067655;28;20615;-43
2023/05/14 02:23:22;;;;;;;4.20;3.80;;;22.40;58.70;;;;;;5067549;28;20738;-43
2023/05/14 02:26:09;;;;;;;3.97;3.67;;;22.40;58.70;;;;;;5050480;28;20741;-43
2023/05/14 02:28:40;;;;;;;5.13;3.87;;;22.40;58.80;;;;;;5032758;28;20218;-43
2023/05/14 02:31:10;;;;;;;6.30;3.60;;;22.40;58.70;;;;;;5052116;28;20828;-43
2023/05/14 02:33:40;;;;;;;7.40;3.57;;;22.40;58.80;;;;;;5065151;28;20193;-43
2023/05/14 02:36:11;;;;;;;3.80;3.50;;;22.40;58.70;;;;;;5061902;28;20598;-43
2023/05/14 02:38:42;;;;;;;4.33;3.93;;;22.40;58.80;;;;;;5069499;28;20559;-43
2023/05/14 02:41:13;;;;;;;4.30;3.77;;;22.40;58.70;;;;;;5057122;28;20225;-44
2023/05/14 02:43:45;;;;;;;4.30;4.00;;;22.40;58.80;;;;;;5059707;28;20535;-43
2023/05/14 02:46:16;;;;;;;5.60;4.20;;;22.40;58.80;;;;;;5067801;28;20555;-43
2023/05/14 02:48:45;;;;;;;3.77;3.50;;;22.40;58.80;;;;;;5068087;28;20186;-43
2023/05/14 02:51:17;;;;;;;4.77;3.60;;;22.40;58.80;;;;;;5039572;28;20198;-43
2023/05/14 02:53:47;;;;;;;4.23;3.83;;;22.30;58.70;;;;;;5056241;28;20210;-43
2023/05/14 02:56:18;;;;;;;4.07;3.77;;;22.30;58.80;;;;;;5053000;28;20190;-43
2023/05/14 02:58:48;;;;;;;4.27;3.87;;;22.30;58.80;;;;;;5061462;28;20189;-43
2023/05/14 03:01:19;;;;;;;4.00;3.60;;;22.30;58.80;;;;;;5069291;28;20216;-43
2023/05/14 03:03:48;;;;;;;3.80;3.50;;;22.30;58.70;;;;;;5051326;28;20252;-43
2023/05/14 03:06:24;;;;;;;4.13;3.83;;;22.30;58.80;;;;;;5040844;28;20666;-43
2023/05/14 03:08:56;;;;;;;4.60;3.63;;;22.30;58.80;;;;;;5067193;28;20193;-43
2023/05/14 03:11:26;;;;;;;4.90;4.13;;;22.30;58.80;;;;;;5068451;28;20197;-43
2023/05/14 03:13:56;;;;;;;4.07;3.67;;;22.20;58.80;;;;;;5048842;28;20205;-43
2023/05/14 03:16:41;;;;;;;4.93;3.40;;;22.30;58.80;;;;;;5051059;28;20197;-43
2023/05/14 03:19:14;;;;;;;3.90;3.60;;;22.30;58.90;;;;;;5051903;28;20264;-43
2023/05/14 03:21:46;;;;;;;4.20;3.80;;;22.20;58.80;;;;;;5070842;28;20232;-43
2023/05/14 03:24:15;;;;;;;3.93;3.63;;;22.20;58.90;;;;;;5062299;28;20677;-43
2023/05/14 03:26:45;;;;;;;4.73;3.90;;;22.20;58.80;;;;;;5058856;28;20229;-43
2023/05/14 03:29:16;;;;;;;4.87;4.23;;;22.20;58.80;;;;;;5066509;28;20193;-43
2023/05/14 03:31:49;;;;;;;5.20;4.00;;;22.20;58.90;;;;;;5068224;28;20186;-43
2023/05/14 03:34:23;;;;;;;4.10;3.80;;;22.20;59.00;;;;;;5061021;28;20197;-43
2023/05/14 03:36:52;;;;;;;4.73;4.23;;;22.20;58.90;;;;;;5046685;28;20252;-43
2023/05/14 03:39:23;;;;;;;4.20;3.90;;;22.20;58.90;;;;;;5049076;28;20195;-43
2023/05/14 03:41:55;;;;;;;4.90;3.97;;;22.20;58.80;;;;;;5057661;28;20821;-43
2023/05/14 03:44:23;;;;;;;4.70;3.80;;;22.20;58.90;;;;;;5049387;28;20605;-43
2023/05/14 03:46:57;;;;;;;4.67;4.27;;;22.10;58.90;;;;;;5056984;28;20211;-43
2023/05/14 03:49:26;;;;;;;4.10;3.80;;;22.20;58.90;;;;;;5067406;28;20202;-43
2023/05/14 03:51:58;;;;;;;5.30;4.00;;;22.10;58.80;;;;;;5059957;28;20225;-43
2023/05/14 03:54:29;;;;;;;4.03;3.73;;;22.10;58.90;;;;;;5058905;28;20198;-43
2023/05/14 03:57:00;;;;;;;3.97;3.67;;;22.10;58.90;;;;;;5057085;28;20208;-43
2023/05/14 03:59:32;;;;;;;4.03;3.70;;;22.10;59.00;;;;;;5063833;28;20244;-43
2023/05/14 04:02:03;;;;;;;4.20;3.90;;;22.10;58.90;;;;;;5057818;28;20216;-43
2023/05/14 04:04:34;;;;;;;4.63;4.17;;;22.10;58.90;;;;;;5064510;28;20867;-43
2023/05/14 04:07:07;;;;;;;4.53;3.90;;;22.10;58.90;;;;;;5072666;28;20279;-43
2023/05/14 04:09:38;;;;;;;5.23;4.50;;;22.10;58.80;;;;;;5066295;28;20587;-43
2023/05/14 04:12:07;;;;;;;4.30;3.90;;;22.10;58.90;;;;;;5058513;28;20288;-43
2023/05/14 04:14:39;;;;;;;4.43;4.03;;;22.10;58.90;;;;;;5063059;28;20196;-44
2023/05/14 04:17:12;;;;;;;4.07;3.77;;;22.00;58.90;;;;;;5060720;28;20197;-45
2023/05/14 04:19:44;;;;;;;4.13;3.73;;;22.10;58.90;;;;;;5071878;28;20634;-43
2023/05/14 04:22:15;;;;;;;4.70;4.30;;;22.00;58.90;;;;;;5071070;28;20883;-44
2023/05/14 04:24:56;;;;;;;5.63;4.00;;;22.00;58.80;;;;;;5049507;28;20531;-44
2023/05/14 04:27:27;;;;;;;5.07;4.13;;;22.00;58.90;;;;;;5073020;28;20229;-44
2023/05/14 04:29:57;;;;;;;7.07;4.20;;;22.00;58.90;;;;;;5063674;28;20205;-43
2023/05/14 04:32:27;;;;;;;4.67;4.27;;;22.00;58.80;;;;;;5062218;28;20221;-44
2023/05/14 04:34:59;;;;;;;4.30;3.90;;;22.00;58.80;;;;;;5071739;28;20217;-44
2023/05/14 04:37:31;;;;;;;4.30;3.90;;;22.00;58.80;;;;;;5056324;28;20686;-43
2023/05/14 04:40:03;;;;;;;4.60;4.20;;;22.00;58.80;;;;;;5048931;28;20203;-43
2023/05/14 04:42:34;;;;;;;4.17;3.77;;;22.00;58.80;;;;;;5069865;28;20232;-44
2023/05/14 04:45:05;;;;;;;4.73;4.27;;;22.00;58.70;;;;;;5067941;28;20211;-44
2023/05/14 04:47:36;;;;;;;4.40;4.00;;;22.00;58.70;;;;;;5065415;28;20189;-43
2023/05/14 04:50:08;;;;;;;4.57;4.17;;;22.00;58.70;;;;;;5070424;28;20705;-43
2023/05/14 04:52:39;;;;;;;5.30;4.47;;;22.00;58.70;;;;;;5066243;28;20217;-44
2023/05/14 04:55:09;;;;;;;4.87;4.37;;;22.00;58.80;;;;;;5075030;28;20643;-43
2023/05/14 04:57:39;;;;;;;4.53;4.13;;;22.00;58.70;;;;;;5071598;28;20205;-43
2023/05/14 05:00:10;;;;;;;4.40;4.00;;;22.00;58.70;;;;;;5070185;28;20197;-43
2023/05/14 05:02:40;;;;;;;5.97;4.20;;;22.00;58.70;;;;;;5053324;28;20214;-43
2023/05/14 05:05:12;;;;;;;5.67;4.63;;;22.00;58.70;;;;;;5063240;28;20674;-43
2023/05/14 05:07:44;;;;;;;4.60;4.20;;;22.00;58.60;;;;;;5071269;28;20522;-44
2023/05/14 05:10:15;;;;;;;5.80;4.43;;;22.00;58.70;;;;;;5068337;28;20205;-43
2023/05/14 05:12:46;;;;;;;5.30;4.53;;;22.00;58.60;;;;;;5071497;28;20194;-43
2023/05/14 05:15:15;;;;;;;6.70;4.83;;;22.00;58.50;;;;;;5072532;28;20255;-43
2023/05/14 05:17:43;;;;;;;5.70;4.50;;;22.00;58.40;;;;;;5066908;28;20208;-43
2023/05/14 05:20:13;;;;;;;5.87;4.33;;;22.00;58.40;;;;;;5069316;28;20589;-43
2023/05/14 05:22:58;;;;;;;5.13;4.60;;;22.00;58.40;;;;;;5062705;28;20194;-43
2023/05/14 05:25:28;;;;;;;4.63;4.20;;;22.00;58.30;;;;;;5069815;28;20221;-43
2023/05/14 05:27:57;;;;;;;5.53;4.70;;;22.00;58.40;;;;;;5048772;28;20222;-44
2023/05/14 05:30:29;;;;;;;5.90;4.47;;;21.90;58.40;;;;;;5070679;28;20611;-43
2023/05/14 05:32:57;;;;;;;7.80;5.27;;;21.90;58.30;;;;;;5071115;28;20223;-43
2023/05/14 05:35:29;;;;;;;6.77;4.67;;;21.90;58.40;;;;;;5038474;28;20190;-43
2023/05/14 05:38:01;;;;;;;5.27;4.77;;;22.00;58.40;;;;;;5068561;28;20200;-43
2023/05/14 05:40:32;;;;;;;5.57;4.77;;;22.00;58.40;;;;;;5051308;28;20209;-43
2023/05/14 05:43:03;;;;;;;5.47;4.83;;;21.90;58.30;;;;;;5053396;28;20659;-43
2023/05/14 05:45:34;;;;;;;6.50;5.00;;;21.90;58.30;;;;;;5070250;28;20221;-43
2023/05/14 05:48:03;;;;;;;5.43;5.00;;;22.00;58.30;;;;;;5067973;28;20198;-44
2023/05/14 05:50:35;;;;;;;5.03;4.57;;;21.90;58.30;;;;;;5070522;28;20220;-44
2023/05/14 05:53:05;;;;;;;5.83;4.37;;;21.90;58.30;;;;;;5058754;28;20276;-43
2023/05/14 05:55:41;;;;;;;5.23;4.83;;;21.90;58.40;;;;;;5065811;28;20640;-44
2023/05/14 05:58:14;;;;;;;5.37;4.83;;;21.90;58.30;;;;;;5047746;28;20928;-43
2023/05/14 06:00:46;;;;;;;5.10;4.63;;;21.90;58.30;;;;;;5073458;28;20223;-44
2023/05/14 06:03:27;;;;;;;5.67;5.17;;;21.90;58.30;;;;;;5055769;28;20205;-43
2023/05/14 06:05:56;;;;;;;5.97;5.33;;;21.90;58.20;;;;;;5063379;28;20237;-44
2023/05/14 06:08:39;;;;;;;6.10;5.40;;;21.90;58.10;;;;;;5057976;28;20284;-44
2023/05/14 06:11:09;;;;;;;6.33;5.80;;;21.90;58.10;;;;;;5070641;28;20182;-43
2023/05/14 06:13:38;;;;;;;6.63;5.93;;;21.90;58.10;;;;;;5070468;28;20193;-43
2023/05/14 06:16:09;;;;;;;6.80;6.10;;;21.90;58.00;;;;;;5061226;28;20186;-43
2023/05/14 06:18:41;;;;;;;6.23;5.63;;;21.90;58.00;;;;;;5063108;28;20192;-43
2023/05/14 06:21:13;;;;;;;5.90;5.30;;;21.90;58.10;;;;;;5070854;28;20279;-43
2023/05/14 06:23:41;;;;;;;7.03;5.13;;;21.90;58.20;;;;;;5067762;28;20607;-43
2023/05/14 06:26:11;;;;;;;6.40;5.20;;;21.90;58.20;;;;;;5060292;28;20229;-43
2023/05/14 06:28:43;;;;;;;5.50;4.97;;;21.90;58.30;;;;;;5064288;28;20212;-43
2023/05/14 06:31:19;;;;;;;6.57;4.70;;;21.90;58.40;;;;;;5050436;28;20200;-43
2023/05/14 06:33:50;;;;;;;5.97;5.17;;;21.90;58.40;;;;;;5065486;28;20205;-43
2023/05/14 06:36:21;;;;;;;5.73;5.10;;;21.90;58.40;;;;;;5068783;28;20204;-43
2023/05/14 06:38:50;;;;;;;5.13;4.63;;;21.90;58.40;;;;;;5072992;28;20205;-44
2023/05/14 06:41:22;;;;;;;8.57;5.63;;;21.90;58.50;;;;;;5065741;28;20221;-43
2023/05/14 06:43:57;;;;;;;6.27;5.60;;;21.90;58.50;;;;;;5031982;28;20293;-43
2023/05/14 06:46:34;;;;;;;5.37;4.80;;;21.90;58.50;;;;;;5069015;28;20211;-43
2023/05/14 06:49:06;;;;;;;6.03;5.47;;;21.90;58.50;;;;;;5070855;28;20589;-43
2023/05/14 06:51:37;;;;;;;6.53;5.00;;;21.90;58.50;;;;;;5073375;28;20194;-43
2023/05/14 06:54:12;;;;;;;6.10;5.27;;;21.90;58.50;;;;;;5064544;28;20628;-43
2023/05/14 06:56:43;;;;;;;5.47;4.97;;;21.90;58.50;;;;;;5069164;28;20206;-43
2023/05/14 06:59:16;;;;;;;5.63;5.13;;;21.90;58.50;;;;;;5063480;28;20197;-43
2023/05/14 07:01:46;;;;;;;6.03;5.13;;;21.90;58.50;;;;;;5051469;28;20256;-43
2023/05/14 07:04:16;;;;;;;5.10;4.67;;;21.90;58.50;;;;;;5062468;28;20674;-43
2023/05/14 07:06:48;;;;;;;5.13;4.73;;;21.90;58.50;;;;;;5077167;28;20290;-43
2023/05/14 07:09:19;;;;;;;5.70;5.13;;;21.90;58.50;;;;;;5066915;28;20651;-43
2023/05/14 07:11:51;;;;;;;7.13;5.23;;;21.90;58.40;;;;;;5068179;28;20190;-44
2023/05/14 07:14:23;;;;;;;6.60;4.90;;;21.90;58.50;;;;;;5061048;28;20610;-44
2023/05/14 07:16:53;;;;;;;8.67;4.87;;;21.90;58.50;;;;;;5060019;28;20709;-43
2023/05/14 07:19:27;;;;;;;4.77;4.37;;;21.90;58.50;;;;;;5054547;28;20198;-44
2023/05/14 07:21:58;;;;;;;5.40;4.93;;;21.90;58.50;;;;;;5050732;28;20189;-44
2023/05/14 07:24:28;;;;;;;5.17;4.67;;;22.00;58.50;;;;;;5070026;28;20212;-44
2023/05/14 07:26:59;;;;;;;7.93;5.00;;;22.00;58.50;;;;;;5062886;28;20235;-43
2023/05/14 07:29:29;;;;;;;5.13;4.63;;;21.90;58.50;;;;;;5045827;28;20214;-44
2023/05/14 07:31:57;;;;;;;5.03;4.53;;;22.00;58.50;;;;;;5046387;28;20210;-44
2023/05/14 07:34:28;;;;;;;5.13;4.63;;;22.00;58.50;;;;;;5046235;28;20217;-44
2023/05/14 07:37:00;;;;;;;4.97;4.57;;;22.00;58.50;;;;;;5036222;28;20208;-45
2023/05/14 07:39:32;;;;;;;6.07;5.43;;;22.00;58.50;;;;;;5032658;28;20203;-43
2023/05/14 07:42:05;;;;;;;5.93;5.40;;;22.00;58.50;;;;;;5042238;28;20214;-44
2023/05/14 07:44:37;;;;;;;6.27;5.10;;;22.00;58.60;;;;;;5042019;28;20206;-44
2023/05/14 07:47:10;;;;;;;5.87;4.93;;;22.00;58.50;;;;;;5041026;28;20206;-44
2023/05/14 07:49:40;;;;;;;5.17;4.67;;;22.00;58.50;;;;;;5046959;28;20193;-44
2023/05/14 07:52:11;;;;;;;5.63;5.13;;;22.00;58.60;;;;;;5043602;28;20996;-43
2023/05/14 07:54:42;;;;;;;5.73;5.13;;;22.00;58.60;;;;;;5046990;28;20194;-44
2023/05/14 07:57:10;;;;;;;5.57;5.17;;;22.00;58.50;;;;;;5037201;28;20206;-44
2023/05/14 07:59:46;;;;;;;6.03;5.53;;;22.10;58.50;;;;;;5048518;28;20651;-43
2023/05/14 08:02:17;;;;;;;5.80;5.20;;;22.10;58.60;;;;;;5045883;28;20660;-43
2023/05/14 08:04:49;;;;;;;10.90;4.80;;;22.10;58.60;;;;;;5046275;28;20206;-43
2023/05/14 08:07:20;;;;;;;5.30;4.77;;;22.00;58.60;;;;;;5048872;28;20213;-44
2023/05/14 08:09:51;;;;;;;5.57;5.07;;;22.10;58.70;;;;;;5048378;28;20190;-43
2023/05/14 08:12:22;;;;;;;5.70;5.20;;;22.10;58.70;;;;;;5037366;28;20198;-44
2023/05/14 08:14:52;;;;;;;6.20;5.67;;;22.10;58.70;;;;;;5027839;28;20191;-44
2023/05/14 08:17:23;;;;;;;6.40;5.27;;;22.10;58.70;;;;;;5036720;28;20210;-44
2023/05/14 08:19:53;;;;;;;6.33;5.43;;;22.10;58.70;;;;;;5046916;28;20644;-43
2023/05/14 08:22:28;;;;;;;5.03;4.53;;;22.10;58.70;;;;;;5044347;28;20201;-43
2023/05/14 08:25:02;;;;;;;5.30;4.83;;;22.10;58.70;;;;;;5046568;28;20206;-43
2023/05/14 08:27:34;;;;;;;5.90;5.17;;;22.10;58.70;;;;;;5061302;28;20297;-44
2023/05/14 08:30:03;;;;;;;7.27;6.03;;;22.20;58.80;;;;;;5058302;28;20217;-43
2023/05/14 08:32:37;;;;;;;6.03;5.13;;;22.10;58.70;;;;;;5034355;28;20256;-43
2023/05/14 08:35:08;;;;;;;6.27;5.57;;;22.10;58.70;;;;;;5048297;28;20234;-43
2023/05/14 08:37:41;;;;;;;5.60;5.07;;;22.20;58.80;;;;;;5052505;28;20198;-44
2023/05/14 08:40:15;;;;;;;5.67;4.77;;;22.20;58.70;;;;;;5055209;28;20213;-43
2023/05/14 08:42:47;;;;;;;11.97;7.43;;;22.20;58.70;;;;;;5050200;28;20193;-43
2023/05/14 08:45:19;;;;;;;14.37;8.27;;;22.20;59.20;;;;;;5033731;28;20198;-43
2023/05/14 08:47:51;;;;;;;25.33;11.70;;;22.30;59.50;;;;;;5049236;28;20650;-43
2023/05/14 08:50:24;;;;;;;18.40;9.87;;;22.20;59.80;;;;;;5050874;28;20194;-43
2023/05/14 08:52:58;;;;;;;15.40;8.87;;;22.30;59.90;;;;;;5082133;28;20542;-44
2023/05/14 08:55:27;;;;;;;20.37;9.23;;;22.30;59.70;;;;;;5071155;28;20570;-44
2023/05/14 08:57:54;;;;;;;16.77;8.97;;;22.30;59.70;;;;;;5042650;28;20199;-45
2023/05/14 09:00:27;;;;;;;14.23;9.00;;;22.30;59.70;;;;;;5070384;28;20638;-44
2023/05/14 09:02:56;;;;;;;19.50;9.63;;;22.30;59.50;;;;;;5052540;28;20691;-43
2023/05/14 09:05:28;;;;;;;14.23;8.03;;;22.30;59.50;;;;;;5058042;28;20724;-44
2023/05/14 09:07:55;;;;;;;17.53;8.47;;;22.30;59.50;;;;;;5060207;28;20208;-43
2023/05/14 09:10:27;;;;;;;15.40;8.10;;;22.30;59.50;;;;;;5067692;28;20406;-44
2023/05/14 09:13:01;;;;;;;13.87;7.90;;;22.40;59.50;;;;;;5063122;28;20224;-43
2023/05/14 09:15:34;;;;;;;14.50;8.57;;;22.40;60.10;;;;;;5063638;28;20190;-43
2023/05/14 09:18:06;;;;;;;14.43;8.57;;;22.40;59.70;;;;;;5059062;28;20206;-43
2023/05/14 09:20:36;;;;;;;11.67;7.80;;;22.40;59.90;;;;;;5067581;28;20200;-44
2023/05/14 09:23:10;;;;;;;14.37;7.83;;;22.40;60.00;;;;;;5036759;28;20647;-42
2023/05/14 09:25:52;;;;;;;13.57;9.07;;;22.40;60.20;;;;;;5069420;28;20240;-43
2023/05/14 09:28:23;;;;;;;14.83;8.47;;;22.50;60.20;;;;;;5067965;28;20240;-44
2023/05/14 09:30:53;;;;;;;11.33;7.73;;;22.50;60.30;;;;;;5048689;28;20193;-44
2023/05/14 09:33:31;;;;;;;11.37;7.20;;;22.50;60.40;;;;;;5061174;28;20233;-43
2023/05/14 09:36:01;;;;;;;12.43;7.20;;;22.50;60.20;;;;;;5074963;28;20193;-43
2023/05/14 09:38:32;;;;;;;11.60;7.03;;;22.60;60.30;;;;;;5033919;28;20202;-43
2023/05/14 09:41:03;;;;;;;8.43;6.67;;;22.60;60.20;;;;;;5066585;28;20209;-43
2023/05/14 09:43:34;;;;;;;9.57;7.30;;;22.60;60.10;;;;;;5061016;28;20198;-43
2023/05/14 09:46:06;;;;;;;11.37;7.10;;;22.60;60.10;;;;;;5069082;28;20229;-43
2023/05/14 09:48:37;;;;;;;9.70;6.97;;;22.60;60.10;;;;;;5067558;28;20254;-43
2023/05/14 09:51:08;;;;;;;8.87;6.23;;;22.60;60.10;;;;;;5049866;28;20202;-43
2023/05/14 09:53:38;;;;;;;9.90;6.73;;;22.60;60.00;;;;;;5054631;28;20198;-44
2023/05/14 09:56:26;;;;;;;9.03;6.47;;;22.60;59.90;;;;;;5073691;28;20189;-43
2023/05/14 09:58:56;;;;;;;8.00;6.83;;;22.70;60.00;;;;;;5047222;28;20713;-43
2023/05/14 10:01:25;;;;;;;7.47;6.40;;;22.60;59.90;;;;;;5074047;28;20876;-43
2023/05/14 10:04:05;;;;;;;7.40;6.13;;;22.70;59.90;;;;;;5060635;28;20193;-44
2023/05/14 10:06:40;;;;;;;9.27;5.83;;;22.70;59.90;;;;;;5070393;28;20654;-43
2023/05/14 10:09:18;;;;;;;7.03;6.20;;;22.70;59.90;;;;;;5051471;28;20205;-43
2023/05/14 10:11:57;;;;;;;9.07;6.70;;;22.70;60.00;;;;;;5070237;28;20209;-45
2023/05/14 10:14:39;;;;;;;10.17;6.77;;;22.70;59.90;;;;;;5045300;28;20209;-44
2023/05/14 10:17:16;;;;;;;8.73;5.80;;;22.70;59.90;;;;;;5071949;28;20206;-43
2023/05/14 10:19:52;;;;;;;7.67;6.90;;;22.70;59.90;;;;;;5065369;28;20636;-44
2023/05/14 10:22:34;;;;;;;9.03;7.07;;;22.70;59.90;;;;;;5069064;28;20186;-43
2023/05/14 10:25:08;;;;;;;6.80;5.73;;;22.70;59.90;;;;;;5080315;28;20184;-43
2023/05/14 10:27:41;;;;;;;8.00;6.20;;;22.70;59.90;;;;;;5064448;28;20245;-43
2023/05/14 10:30:13;;;;;;;6.23;5.57;;;22.70;59.90;;;;;;5044432;28;20798;-43
2023/05/14 10:32:44;;;;;;;8.57;6.03;;;22.80;60.00;;;;;;5050090;28;20186;-43
2023/05/14 10:35:17;;;;;;;7.70;5.80;;;22.80;60.10;;;;;;5052083;28;20213;-43
2023/05/14 10:37:45;;;;;;;7.53;6.10;;;22.80;60.10;;;;;;5051988;28;20193;-46
2023/05/14 10:40:17;;;;;;;9.53;6.07;;;22.80;60.30;;;;;;5051185;28;20210;-44
2023/05/14 10:42:50;;;;;;;10.07;6.30;;;22.80;60.10;;;;;;5068620;28;20202;-44
2023/05/14 10:45:22;;;;;;;10.97;6.50;;;22.80;60.10;;;;;;5055075;28;20536;-43
2023/05/14 10:47:53;;;;;;;6.40;5.80;;;22.90;60.10;;;;;;5034766;28;20210;-45
2023/05/14 10:50:29;;;;;;;6.43;5.53;;;22.90;60.20;;;;;;5046128;28;20625;-44
2023/05/14 10:53:01;;;;;;;9.50;5.47;;;22.90;60.30;;;;;;5068486;28;20209;-43
2023/05/14 10:55:32;;;;;;;12.53;5.67;;;22.90;60.50;;;;;;5071911;28;20181;-43
2023/05/14 10:58:03;;;;;;;9.10;5.47;;;22.90;60.70;;;;;;5064451;28;20206;-44
2023/05/14 11:00:36;;;;;;;9.47;5.37;;;22.90;60.80;;;;;;5063932;28;20190;-43
2023/05/14 11:03:07;;;;;;;7.07;5.27;;;23.00;61.20;;;;;;5068768;28;20291;-45
2023/05/14 11:05:39;;;;;;;5.73;5.13;;;23.00;61.40;;;;;;5056447;28;20710;-43
2023/05/14 11:08:13;;;;;;;5.60;4.57;;;23.00;61.70;;;;;;5040977;28;20216;-43
2023/05/14 11:10:46;;;;;;;8.17;4.70;;;23.10;62.10;;;;;;5036785;28;20191;-45
2023/05/14 11:13:19;;;;;;;7.10;4.87;;;23.20;62.50;;;;;;5050843;28;20514;-43
2023/05/14 11:15:50;;;;;;;6.00;4.43;;;23.20;63.00;;;;;;5067642;28;20296;-43
2023/05/14 11:18:39;;;;;;;5.80;4.03;;;23.20;63.50;;;;;;5051851;28;20225;-43
2023/05/14 11:21:06;;;;;;;10.10;4.70;;;23.30;63.70;;;;;;5068695;28;20209;-43
2023/05/14 11:23:36;;;;;;;5.50;4.10;;;23.30;64.10;;;;;;5060645;28;20208;-43
2023/05/14 11:26:06;;;;;;;6.57;4.67;;;23.30;64.20;;;;;;5065373;28;20200;-43
2023/05/14 11:28:40;;;;;;;8.47;4.17;;;23.40;64.60;;;;;;5052307;28;20220;-44
2023/05/14 11:31:14;;;;;;;4.37;3.87;;;23.40;64.80;;;;;;5063094;28;20262;-43
2023/05/14 11:33:46;;;;;;;6.47;4.37;;;23.50;65.20;;;;;;5068956;28;20537;-45
2023/05/14 11:36:15;;;;;;;13.57;5.10;;;23.50;65.20;;;;;;5064010;28;20247;-43
2023/05/14 11:38:51;;;;;;;12.80;4.90;;;23.60;65.30;;;;;;5044242;28;20295;-44
2023/05/14 11:41:21;;;;;;;12.47;4.73;;;23.60;65.50;;;;;;5038559;28;20218;-44
2023/05/14 11:43:52;;;;;;;11.53;5.17;;;23.70;65.70;;;;;;5062804;28;20200;-43
2023/05/14 11:46:23;;;;;;;12.83;5.17;;;23.70;65.70;;;;;;5051161;28;20203;-44
2023/05/14 11:48:55;;;;;;;17.73;5.43;;;23.80;65.80;;;;;;5066836;28;20201;-43
2023/05/14 11:51:27;;;;;;;13.80;5.50;;;23.80;65.80;;;;;;5068858;28;20213;-43
2023/05/14 11:53:58;;;;;;;17.20;6.00;;;23.80;65.90;;;;;;5055811;28;20702;-43
2023/05/14 11:56:30;;;;;;;18.20;6.33;;;23.90;65.90;;;;;;5063237;28;20189;-43
2023/05/14 11:59:00;;;;;;;16.93;6.60;;;23.90;65.90;;;;;;5064269;28;20213;-44
2023/05/14 12:01:41;;;;;;;14.30;6.20;;;23.90;65.80;;;;;;5060895;28;20662;-43
2023/05/14 12:04:13;;;;;;;12.60;5.47;;;24.00;65.70;;;;;;5042471;28;20193;-44
2023/05/14 12:06:40;;;;;;;13.57;6.17;;;24.00;65.70;;;;;;5057794;28;20604;-44
2023/05/14 12:09:11;;;;;;;22.17;7.23;;;24.00;65.50;;;;;;5065086;28;20197;-44
2023/05/14 12:11:45;;;;;;;20.90;6.50;;;24.00;65.30;;;;;;5067167;28;20662;-44
2023/05/14 12:14:22;;;;;;;17.00;6.43;;;24.10;65.80;;;;;;5049317;28;20247;-43
2023/05/14 12:16:54;;;;;;;11.27;6.00;;;24.10;65.00;;;;;;5050979;28;20216;-44
2023/05/14 12:19:29;;;;;;;13.93;5.73;;;24.10;64.90;;;;;;5074291;28;20209;-44
2023/05/14 12:22:01;;;;;;;12.17;5.30;;;24.20;64.80;;;;;;5069455;28;20197;-44
2023/05/14 12:24:33;;;;;;;10.53;5.40;;;24.20;64.60;;;;;;5069063;28;20198;-44
2023/05/14 12:27:03;;;;;;;11.87;5.50;;;24.20;64.40;;;;;;5068106;28;20241;-45
2023/05/14 12:29:39;;;;;;;13.00;4.90;;;24.30;64.30;;;;;;5069317;28;20834;-44
2023/05/14 12:32:09;;;;;;;9.33;5.27;;;24.30;64.20;;;;;;5060602;28;20221;-44
2023/05/14 12:34:42;;;;;;;13.67;4.93;;;24.30;64.00;;;;;;5072828;28;20219;-43
2023/05/14 12:37:13;;;;;;;11.10;4.83;;;24.40;63.80;;;;;;5084939;28;20193;-44
2023/05/14 12:39:43;;;;;;;13.60;4.93;;;24.40;63.70;;;;;;5086052;28;20201;-43
2023/05/14 12:42:13;;;;;;;9.53;4.60;;;24.40;63.50;;;;;;5068760;28;20209;-43
2023/05/14 12:44:41;;;;;;;7.63;4.67;;;24.50;63.50;;;;;;5066294;28;20204;-43
2023/05/14 12:47:11;;;;;;;12.90;4.97;;;24.50;63.70;;;;;;5071180;28;20559;-43
2023/05/14 12:49:42;;;;;;;19.07;5.17;;;24.50;63.80;;;;;;5072615;28;20236;-42
2023/05/14 12:52:10;;;;;;;12.93;4.93;;;24.60;64.00;;;;;;5064456;28;20228;-44
2023/05/14 12:55:04;;;;;;;10.73;5.37;;;24.60;63.90;;;;;;5029613;28;20213;-42
2023/05/14 12:57:34;;;;;;;10.43;4.80;;;24.60;65.00;;;;;;5029085;28;20644;-43
2023/05/14 13:00:06;;;;;;;9.17;4.93;;;24.60;65.20;;;;;;5011301;28;20560;-43
2023/05/14 13:02:48;;;;;;;8.40;4.57;;;24.60;65.80;;;;;;5022984;28;20222;-44
2023/05/14 13:05:18;;;;;;;10.67;5.40;;;24.60;66.10;;;;;;5029312;28;20623;-51
2023/05/14 13:07:51;;;;;;;10.20;5.10;;;24.60;66.60;;;;;;5016322;28;20584;-44
2023/05/14 13:10:20;;;;;;;7.00;4.77;;;24.60;66.50;;;;;;5025983;28;20199;-43
2023/05/14 13:12:51;;;;;;;9.57;4.67;;;24.60;67.00;;;;;;5038533;28;20245;-43